createdAt,value
2023-01-05T00:02:05.552Z,102417.63
2023-01-05T00:04:33.315Z,102409.41
2023-01-05T00:07:01.131Z,102424.62
2023-01-05T00:09:28.770Z,102412.72
2023-01-05T00:12:14.942Z,102412.72
2023-01-05T00:15:03.823Z,102402.78
2023-01-05T00:17:49.840Z,102399.12
2023-01-05T00:20:41.426Z,102404.48
2023-01-05T00:23:10.028Z,102407.72
2023-01-05T00:25:40.190Z,102393.49
2023-01-05T00:28:08.614Z,102391.01
2023-01-05T00:30:41.107Z,102399.58
2023-01-05T00:33:26.874Z,102392.25
2023-01-05T00:35:54.529Z,102396.73
2023-01-05T00:38:22.223Z,102393.85
2023-01-05T00:40:51.127Z,102392.61
2023-01-05T00:43:37.250Z,102389.27
2023-01-05T00:46:05.044Z,102381.49
2023-01-05T00:48:32.763Z,102379.43
2023-01-05T00:51:00.517Z,102370.83
2023-01-05T00:53:46.173Z,102345.20
2023-01-05T06:30:26.920Z,102277.18
2023-01-05T06:32:54.804Z,102302.00
2023-01-05T06:35:22.710Z,102295.03
2023-01-05T06:37:50.488Z,102287.61
2023-01-05T06:40:18.300Z,102288.03
2023-01-05T06:42:46.071Z,102301.90
2023-01-05T06:45:16.051Z,102300.66
2023-01-05T06:47:44.459Z,102298.14
2023-01-05T06:50:12.491Z,102307.88
2023-01-05T06:52:41.288Z,102320.93
2023-01-05T06:55:13.051Z,102324.59
2023-01-05T06:57:40.761Z,102324.95
2023-01-05T07:00:11.634Z,102346.14
2023-01-05T07:02:39.410Z,102348.07
2023-01-05T07:05:07.727Z,102346.83
2023-01-05T07:07:35.690Z,102351.63
2023-01-05T07:10:03.734Z,102340.55
2023-01-05T07:12:31.500Z,102339.77
2023-01-05T07:14:59.248Z,102344.21
2023-01-05T07:17:27.545Z,102349.51
2023-01-05T07:19:55.438Z,102350.66
2023-01-05T07:22:23.120Z,102364.95
2023-01-05T07:24:50.863Z,102358.34
2023-01-05T07:27:18.565Z,102365.93
2023-01-05T07:29:46.366Z,102366.58
2023-01-05T07:32:14.165Z,102359.81
2023-01-05T07:34:44.873Z,102357.33
2023-01-05T07:37:19.067Z,102350.20
2023-01-05T07:39:46.811Z,102360.53
2023-01-05T07:42:14.528Z,102360.98
2023-01-05T07:44:42.210Z,102365.17
2023-01-05T07:47:09.846Z,102372.66
2023-01-05T07:49:37.636Z,102369.20
2023-01-05T07:52:05.527Z,102354.68
2023-01-05T07:57:01.061Z,102366.65
2023-01-05T07:59:28.705Z,102361.61
2023-01-05T08:01:56.893Z,102365.11
2023-01-05T08:04:24.871Z,102355.13
2023-01-05T08:06:53.672Z,102349.15
2023-01-05T08:09:40.083Z,102358.27
2023-01-05T08:12:08.169Z,102370.73
2023-01-05T08:14:35.858Z,102366.29
2023-01-05T08:17:03.595Z,102376.55
2023-01-05T08:19:31.382Z,102386.52
2023-01-05T08:21:59.113Z,102405.76
2023-01-05T08:24:26.862Z,102412.30
2023-01-05T08:26:54.620Z,102415.59
2023-01-05T08:29:22.651Z,102416.38
2023-01-05T08:31:50.751Z,102400.95
2023-01-05T08:34:18.753Z,102400.85
2023-01-05T08:36:47.635Z,102408.27
2023-01-05T08:39:15.353Z,102417.63
2023-01-05T08:41:43.277Z,102412.82
2023-01-05T08:44:15.240Z,102423.84
2023-01-05T08:46:43.056Z,102418.21
2023-01-05T08:49:11.006Z,102422.66
2023-01-05T08:51:39.401Z,102422.56
2023-01-05T08:54:07.275Z,102423.74
2023-01-05T08:56:38.939Z,102417.20
2023-01-05T08:59:07.545Z,102432.66
2023-01-05T09:01:35.511Z,102437.15
2023-01-05T09:04:03.243Z,102437.24
2023-01-05T09:06:30.929Z,102437.93
2023-01-05T09:08:58.648Z,102433.95
2023-01-05T09:11:27.170Z,102440.45
2023-01-05T09:13:57.791Z,102448.13
2023-01-05T09:16:57.281Z,102432.21
2023-01-05T09:19:16.544Z,102429.73
2023-01-05T09:21:44.411Z,102434.89
2023-01-05T09:24:15.849Z,102433.62
2023-01-05T09:26:44.154Z,102436.82
2023-01-05T09:29:13.220Z,102444.15
2023-01-05T09:31:44.348Z,102453.92
2023-01-05T09:34:12.201Z,102447.28
2023-01-05T09:36:40.029Z,102458.63
2023-01-05T09:39:07.803Z,102461.41
2023-01-05T09:41:48.560Z,102452.81
2023-01-05T09:44:31.617Z,102460.13
2023-01-05T09:47:17.976Z,102452.62
2023-01-05T09:49:49.382Z,102455.39
2023-01-05T09:52:20.489Z,102457.72
2023-01-05T09:54:48.236Z,102469.42
2023-01-05T09:57:22.981Z,102468.54
2023-01-05T09:59:53.714Z,102475.30
2023-01-05T10:02:48.445Z,102458.83
2023-01-05T10:05:16.769Z,102473.84
2023-01-05T10:07:55.186Z,102463.18
2023-01-05T10:11:22.969Z,102480.24
2023-01-05T10:14:03.139Z,102484.30
2023-01-05T10:16:31.379Z,102476.84
2023-01-05T10:18:59.675Z,102470.89
2023-01-05T10:21:27.332Z,102465.14
2023-01-05T10:24:22.953Z,102449.93
2023-01-05T10:27:24.161Z,102450.95
2023-01-05T10:29:50.254Z,102457.06
2023-01-05T10:32:31.412Z,102442.48
2023-01-05T10:35:01.684Z,102445.68
2023-01-05T10:37:50.665Z,102441.59
2023-01-05T10:40:32.529Z,102448.33
2023-01-05T10:43:39.585Z,102450.29
2023-01-05T10:49:01.129Z,102447.55
2023-01-05T10:51:34.471Z,102447.09
2023-01-05T10:54:04.465Z,102445.84
2023-01-05T10:56:33.831Z,102440.77
2023-01-05T10:59:13.722Z,102438.95
2023-01-05T11:01:47.069Z,102438.48
2023-01-05T11:07:08.231Z,102427.92
2023-01-05T11:09:41.800Z,102433.32
2023-01-05T11:12:20.253Z,102434.20
2023-01-05T11:14:59.174Z,102430.15
2023-01-05T11:17:29.167Z,102424.39
2023-01-05T11:19:59.109Z,102427.70
2023-01-05T11:22:45.462Z,102425.84
2023-01-05T11:25:33.080Z,102435.48
2023-01-05T11:28:18.624Z,102419.26
2023-01-05T11:31:02.955Z,102417.23
2023-01-05T11:33:32.659Z,102424.59
2023-01-05T11:36:01.235Z,102432.54
2023-01-05T11:38:31.859Z,102438.42
2023-01-05T11:41:01.785Z,102429.79
2023-01-05T11:43:33.454Z,102438.09
2023-01-05T11:46:05.965Z,102436.49
2023-01-05T11:48:36.804Z,102429.07
2023-01-05T11:51:04.609Z,102428.38
2023-01-05T11:53:35.266Z,102422.76
2023-01-05T11:56:05.891Z,102427.80
2023-01-05T11:58:45.538Z,102420.11
2023-01-05T12:01:28.405Z,102422.17
2023-01-05T12:04:23.881Z,102413.24
2023-01-05T12:06:55.169Z,102414.84
2023-01-05T12:09:35.173Z,102409.41
2023-01-05T12:12:37.334Z,102415.40
2023-01-05T12:15:04.893Z,102413.08
2023-01-05T12:17:51.662Z,102410.07
2023-01-05T12:20:50.997Z,102413.77
2023-01-05T12:23:54.475Z,102418.90
2023-01-05T12:26:25.316Z,102409.81
2023-01-05T12:35:25.224Z,102411.15
2023-01-05T12:38:24.080Z,102402.55
2023-01-05T12:41:13.132Z,102406.21
2023-01-05T12:43:55.771Z,102408.50
2023-01-05T12:47:01.611Z,102412.36
2023-01-05T12:49:36.291Z,102413.51
2023-01-05T12:52:09.783Z,102414.78
2023-01-05T12:54:46.793Z,102410.63
2023-01-05T12:57:37.811Z,102420.83
2023-01-05T13:00:19.495Z,102412.10
2023-01-05T13:02:58.717Z,102412.55
2023-01-05T13:05:46.485Z,102407.75
2023-01-05T13:08:18.654Z,102416.48
2023-01-05T13:11:22.813Z,102410.89
2023-01-05T13:14:01.337Z,102412.30
2023-01-05T13:16:37.824Z,102411.51
2023-01-05T13:19:45.961Z,102416.58
2023-01-05T13:22:36.323Z,102415.11
2023-01-05T13:25:26.334Z,102411.28
2023-01-05T13:27:54.159Z,102414.35
2023-01-05T13:30:31.384Z,102415.17
2023-01-05T13:33:12.796Z,102420.93
2023-01-05T13:35:40.378Z,102414.81
2023-01-05T13:38:17.986Z,102417.69
2023-01-05T13:41:02.065Z,102409.45
2023-01-05T13:44:03.798Z,102411.84
2023-01-05T13:47:08.846Z,102407.23
2023-01-05T13:50:09.786Z,102412.85
2023-01-05T13:53:12.979Z,102420.11
2023-01-05T13:55:48.378Z,102421.05
2023-01-05T14:01:15.373Z,102412.75
2023-01-05T14:03:56.193Z,102418.51
2023-01-05T14:06:35.970Z,102425.54
2023-01-05T14:09:18.576Z,102421.71
2023-01-05T14:12:08.208Z,102414.35
2023-01-05T14:15:03.833Z,102416.09
2023-01-05T14:17:53.469Z,102414.48
2023-01-05T14:20:50.110Z,102425.67
2023-01-05T14:23:26.760Z,102424.39
2023-01-05T14:26:05.484Z,102430.45
2023-01-05T14:28:39.384Z,102433.45
2023-01-05T14:31:15.437Z,102431.06
2023-01-05T14:34:01.971Z,102437.28
2023-01-05T14:36:34.929Z,102436.49
2023-01-05T14:39:24.172Z,102422.70
2023-01-05T14:42:29.890Z,102432.93
2023-01-05T14:45:11.017Z,102430.18
2023-01-05T14:47:45.013Z,102440.05
2023-01-05T14:50:42.221Z,102441.34
2023-01-05T14:53:09.932Z,102446.73
2023-01-05T14:55:43.117Z,102442.74
2023-01-05T14:58:35.740Z,102442.05
2023-01-05T15:01:21.120Z,102441.70
2023-01-05T15:04:12.662Z,102443.33
2023-01-05T15:06:51.192Z,102441.70
2023-01-05T15:09:39.177Z,102446.63
2023-01-05T15:12:27.813Z,102452.62
2023-01-05T15:15:40.774Z,102446.66
2023-01-05T15:18:15.597Z,102455.07
2023-01-05T15:20:46.927Z,102458.73
2023-01-05T15:23:51.937Z,102463.99
2023-01-05T15:26:49.918Z,102458.40
2023-01-05T15:29:29.598Z,102454.84
2023-01-05T15:32:07.563Z,102458.96
2023-01-05T15:34:45.911Z,102453.01
2023-01-05T15:37:39.199Z,102457.98
2023-01-05T15:40:28.633Z,102451.86
2023-01-05T15:43:00.358Z,102463.34
2023-01-05T15:45:31.910Z,102453.73
2023-01-05T15:48:08.468Z,102466.58
2023-01-05T15:50:55.187Z,102458.11
2023-01-05T15:53:33.119Z,102461.09
2023-01-05T15:56:01.664Z,102458.70
2023-01-05T15:58:33.414Z,102462.45
2023-01-05T16:01:21.614Z,102455.91
2023-01-05T16:03:50.872Z,102461.77
2023-01-05T16:06:30.300Z,102458.56
2023-01-05T16:09:03.240Z,102467.16
2023-01-05T16:11:40.768Z,102466.80
2023-01-05T16:14:20.200Z,102470.93
2023-01-05T16:16:55.680Z,102466.12
2023-01-05T16:19:42.581Z,102473.94
2023-01-05T16:22:33.391Z,102481.75
2023-01-05T16:25:07.465Z,102471.97
2023-01-05T16:27:43.251Z,102472.46
2023-01-05T16:30:27.479Z,102477.04
2023-01-05T16:33:04.888Z,102470.14
2023-01-05T16:35:36.539Z,102469.91
2023-01-05T16:38:10.719Z,102466.71
2023-01-05T16:40:56.195Z,102470.01
2023-01-05T16:43:32.233Z,102478.28
2023-01-05T16:46:20.550Z,102487.47
2023-01-05T16:49:00.014Z,102468.28
2023-01-05T16:51:33.918Z,102470.47
2023-01-05T16:54:13.609Z,102471.74
2023-01-05T16:56:56.839Z,102481.13
2023-01-05T16:59:36.345Z,102475.05
2023-01-05T17:02:04.039Z,102484.10
2023-01-05T17:04:31.819Z,102491.07
2023-01-05T17:07:00.246Z,102487.77
2023-01-05T17:09:34.515Z,102488.59
2023-01-05T17:12:02.298Z,102479.16
2023-01-05T17:14:30.064Z,102480.90
2023-01-05T17:17:00.156Z,102478.94
2023-01-05T17:19:28.195Z,102474.91
2023-01-05T17:22:00.261Z,102475.83
2023-01-05T17:24:29.320Z,102480.41
2023-01-05T17:26:57.284Z,102485.80
2023-01-05T17:29:33.532Z,102492.45
2023-01-05T17:32:01.228Z,102485.55
2023-01-05T17:34:28.923Z,102489.66
2023-01-05T17:36:59.808Z,102484.40
2023-01-05T17:39:27.911Z,102477.86
2023-01-05T17:42:15.592Z,102487.24
2023-01-05T17:44:43.295Z,102479.56
2023-01-05T17:47:11.006Z,102479.66
2023-01-05T17:49:38.697Z,102480.93
2023-01-05T17:52:06.462Z,102491.95
2023-01-05T17:54:34.190Z,102486.33
2023-01-05T17:57:02.331Z,102485.51
2023-01-05T17:59:30.092Z,102497.05
2023-01-05T18:01:57.953Z,102484.82
2023-01-05T18:04:27.186Z,102486.85
2023-01-05T18:06:56.351Z,102488.13
2023-01-05T18:11:56.603Z,102493.16
2023-01-05T18:14:24.340Z,102488.68
2023-01-05T18:16:52.018Z,102494.96
2023-01-05T18:19:20.594Z,102495.42
2023-01-05T18:21:48.262Z,102496.20
2023-01-05T18:24:16.032Z,102489.30
2023-01-05T18:26:43.702Z,102491.37
2023-01-05T18:29:11.462Z,102488.59
2023-01-05T18:31:41.844Z,102483.77
2023-01-05T18:34:11.200Z,102479.76
2023-01-05T18:36:38.826Z,102481.09
2023-01-05T18:39:07.955Z,102479.16
2023-01-05T18:41:35.682Z,102478.41
2023-01-05T18:44:03.514Z,102482.53
2023-01-05T18:46:31.756Z,102480.67
2023-01-05T18:48:59.687Z,102488.91
2023-01-05T18:51:27.521Z,102481.69
2023-01-05T18:53:55.236Z,102482.21
2023-01-05T18:56:22.994Z,102483.13
2023-01-05T19:01:23.398Z,102482.93
2023-01-05T19:03:52.296Z,102477.76
2023-01-05T19:06:23.376Z,102469.72
2023-01-05T19:08:52.099Z,102469.78
2023-01-05T19:11:28.436Z,102472.76
2023-01-05T19:13:57.929Z,102467.91
2023-01-05T19:16:28.824Z,102462.75
2023-01-05T19:19:04.520Z,102470.60
2023-01-05T19:21:34.375Z,102474.36
2023-01-05T19:24:03.529Z,102467.91
2023-01-05T19:26:33.477Z,102467.59
2023-01-05T19:29:03.238Z,102467.30
2023-01-05T19:31:31.461Z,102461.67
2023-01-05T19:34:02.305Z,102459.68
2023-01-05T19:36:36.611Z,102469.16
2023-01-05T19:39:15.879Z,102456.99
2023-01-05T19:41:46.895Z,102455.03
2023-01-05T19:44:17.245Z,102457.09
2023-01-05T19:46:45.813Z,102452.71
2023-01-05T19:49:18.771Z,102455.20
2023-01-05T19:51:47.105Z,102454.02
2023-01-05T19:54:15.939Z,102451.60
2023-01-05T19:56:44.964Z,102454.48
2023-01-05T19:59:27.332Z,102447.16
2023-01-05T20:01:57.235Z,102456.96
2023-01-05T20:04:24.963Z,102447.22
2023-01-05T20:06:52.701Z,102443.66
2023-01-05T20:09:21.131Z,102450.69
2023-01-05T20:11:53.056Z,102432.02
2023-01-05T20:14:28.400Z,102442.54
2023-01-05T20:17:14.877Z,102435.71
2023-01-05T20:19:42.577Z,102433.71
2023-01-05T20:22:14.889Z,102427.63
2023-01-05T20:24:46.589Z,102428.88
2023-01-05T20:27:15.991Z,102433.81
2023-01-05T20:29:43.748Z,102435.12
2023-01-05T20:32:18.840Z,102433.52
2023-01-05T20:34:52.974Z,102432.70
2023-01-05T20:37:22.011Z,102434.40
2023-01-05T20:39:49.683Z,102432.41
2023-01-05T20:42:17.384Z,102427.14
2023-01-05T20:44:47.649Z,102444.27
2023-01-05T20:47:16.389Z,102433.74
2023-01-05T20:49:46.356Z,102441.13
2023-01-05T20:52:16.397Z,102447.74
2023-01-05T20:54:44.725Z,102440.05
2023-01-05T20:57:13.108Z,102437.28
2023-01-05T20:59:41.749Z,102440.55
2023-01-05T21:02:22.848Z,102438.95
2023-01-05T21:04:52.282Z,102437.70
2023-01-05T21:07:21.330Z,102439.77
2023-01-05T21:09:51.170Z,102438.59
2023-01-05T21:12:19.979Z,102433.68
2023-01-05T21:14:47.788Z,102435.31
2023-01-05T21:17:15.565Z,102434.14
2023-01-05T21:19:43.276Z,102432.93
2023-01-05T21:22:11.071Z,102430.90
2023-01-05T21:24:38.807Z,102429.69
2023-01-05T21:27:06.480Z,102436.66
2023-01-05T21:29:34.373Z,102441.56
2023-01-05T21:32:02.168Z,102438.32
2023-01-05T21:34:29.900Z,102435.91
2023-01-05T21:36:57.619Z,102443.23
2023-01-05T21:39:27.001Z,102435.91
2023-01-05T21:42:13.653Z,102442.09
2023-01-05T21:44:41.690Z,102437.60
2023-01-05T21:47:09.660Z,102436.00
2023-01-05T21:49:37.457Z,102433.23
2023-01-05T21:52:24.947Z,102420.63
2023-01-05T21:55:11.222Z,102425.96
2023-01-05T21:57:38.985Z,102425.21
2023-01-05T22:00:08.206Z,102417.52
2023-01-05T22:02:36.020Z,102422.07
2023-01-05T22:05:03.988Z,102414.81
2023-01-05T22:07:31.746Z,102421.84
2023-01-05T22:09:59.499Z,102414.59
2023-01-05T22:12:27.293Z,102413.08
2023-01-05T22:14:54.995Z,102399.67
2023-01-05T22:17:22.732Z,102409.09
2023-01-05T22:19:50.441Z,102400.55
2023-01-05T22:22:18.261Z,102401.02
2023-01-05T22:24:46.053Z,102391.30
2023-01-05T22:27:14.233Z,102390.48
2023-01-05T22:29:42.000Z,102396.20
2023-01-05T22:32:09.634Z,102398.33
2023-01-05T22:34:39.053Z,102384.14
2023-01-05T22:37:06.724Z,102400.06
2023-01-05T22:39:34.378Z,102389.90
2023-01-05T22:42:02.125Z,102388.29
2023-01-05T22:44:29.881Z,102388.72
2023-01-05T22:46:58.579Z,102390.84
2023-01-05T22:49:26.323Z,102379.79
2023-01-05T22:51:54.023Z,102383.95
2023-01-05T22:54:21.867Z,102381.16
2023-01-05T22:56:49.504Z,102389.34
2023-01-05T22:59:17.243Z,102383.65
2023-01-05T23:01:48.504Z,102373.91
2023-01-05T23:04:17.259Z,102374.85
2023-01-05T23:06:45.531Z,102372.50
2023-01-05T23:09:15.677Z,102376.59
2023-01-05T23:11:46.153Z,102371.75
2023-01-05T23:14:15.071Z,102374.23
2023-01-05T23:16:43.047Z,102375.08
2023-01-05T23:19:11.074Z,102364.59
2023-01-05T23:21:38.887Z,102372.73
2023-01-05T23:24:06.781Z,102360.17
2023-01-05T23:26:34.430Z,102361.02
2023-01-05T23:29:02.279Z,102356.54
2023-01-05T23:31:29.987Z,102354.16
2023-01-05T23:33:58.492Z,102349.25
2023-01-05T23:36:26.188Z,102346.89
2023-01-05T23:38:53.898Z,102346.96
2023-01-05T23:41:21.792Z,102351.90
2023-01-05T23:43:49.548Z,102343.76
2023-01-05T23:46:22.434Z,102345.78
2023-01-05T23:48:51.602Z,102338.03
2023-01-05T23:51:19.871Z,102334.73
2023-01-05T23:53:50.388Z,102334.80
2023-01-05T23:56:24.126Z,102331.16
2023-01-05T23:59:00.050Z,102326.69
